Time;durP1;ratioP1;P1;durP2;ratioP2;P2;SDS_P1;SDS_P2;PMS_P1;PMS_P2;Temp;Humidity;BMP_temperature;BMP_pressure;BME280_temperature;BME280_humidity;BME280_pressure;Samples;Min_cycle;Max_cycle;Signal;HPM_P1;HPM_P2
2023/09/17 00:00:18;;;;;;;8.70;3.40;;;23.20;99.90;;;;;;6273979;22;20348;-79
2023/09/17 00:02:44;;;;;;;7.93;2.73;;;23.10;99.90;;;;;;6274367;22;20363;-79
2023/09/17 00:05:09;;;;;;;7.47;3.23;;;23.00;99.90;;;;;;6275147;22;20725;-79
2023/09/17 00:07:35;;;;;;;10.27;3.70;;;22.80;99.90;;;;;;6281406;22;20364;-79
2023/09/17 00:10:01;;;;;;;7.70;3.10;;;22.70;99.90;;;;;;6248350;22;20368;-80
2023/09/17 00:12:26;;;;;;;8.70;2.88;;;22.50;1.00;;;;;;6274577;22;20463;-80
2023/09/17 00:14:52;;;;;;;8.93;3.00;;;22.30;99.90;;;;;;6273654;22;20368;-79
2023/09/17 00:17:18;;;;;;;8.82;3.10;;;22.10;1.00;;;;;;6273325;22;20375;-80
2023/09/17 00:19:43;;;;;;;7.03;2.80;;;22.00;99.90;;;;;;6273723;22;20357;-79
2023/09/17 00:22:14;;;;;;;7.50;2.90;;;21.80;1.00;;;;;;6273098;22;20352;-79
2023/09/17 00:24:43;;;;;;;7.87;3.80;;;21.70;1.00;;;;;;6271610;22;20360;-77
2023/09/17 00:27:09;;;;;;;7.82;3.00;;;21.60;99.90;;;;;;6270967;22;20840;-77
2023/09/17 00:29:34;;;;;;;6.60;2.80;;;21.60;99.90;;;;;;6270762;22;20364;-77
2023/09/17 00:32:00;;;;;;;9.00;3.50;;;21.60;7.30;;;;;;6270961;22;20848;-77
2023/09/17 00:34:25;;;;;;;9.23;3.50;;;21.40;1.00;;;;;;6271089;22;20804;-77
2023/09/17 00:36:51;;;;;;;7.40;2.77;;;21.10;1.00;;;;;;6270704;22;20371;-77
2023/09/17 00:39:17;;;;;;;8.70;3.33;;;21.00;1.00;;;;;;6271536;22;20371;-77
2023/09/17 00:41:43;;;;;;;9.43;4.50;;;21.10;99.90;;;;;;6271174;22;20368;-77
2023/09/17 00:44:08;;;;;;;8.80;3.73;;;21.30;1.00;;;;;;6270601;22;20674;-77
2023/09/17 00:46:36;;;;;;;9.68;3.25;;;21.50;99.90;;;;;;6239583;23;21364;-77
2023/09/17 00:49:02;;;;;;;8.35;3.58;;;21.60;1.00;;;;;;6240126;23;20393;-76
2023/09/17 00:51:28;;;;;;;9.18;3.75;;;21.60;99.90;;;;;;6239930;23;20350;-76
2023/09/17 00:53:56;;;;;;;10.60;4.40;;;21.60;99.90;;;;;;6240648;23;20411;-77
2023/09/17 00:56:23;;;;;;;9.50;3.50;;;21.70;99.90;;;;;;6240221;23;20357;-77
2023/09/17 00:58:50;;;;;;;9.20;3.90;;;21.50;99.90;;;;;;6239514;23;20805;-77
2023/09/17 01:01:16;;;;;;;9.05;4.13;;;21.40;1.00;;;;;;6240896;23;20371;-77
2023/09/17 01:03:42;;;;;;;8.77;3.73;;;21.40;99.90;;;;;;6241351;23;20360;-77
2023/09/17 01:06:10;;;;;;;10.55;3.60;;;21.40;99.90;;;;;;6208508;23;20952;-79
2023/09/17 01:08:37;;;;;;;8.70;3.70;;;20.80;1.00;;;;;;6238934;23;20369;-79
2023/09/17 01:11:04;;;;;;;9.98;3.92;;;20.50;99.90;;;;;;6241204;23;20366;-79
2023/09/17 01:13:31;;;;;;;8.98;3.85;;;20.50;1.00;;;;;;6241212;23;20464;-79
2023/09/17 01:15:59;;;;;;;9.02;3.80;;;20.50;1.00;;;;;;6240664;23;20369;-77
2023/09/17 01:18:27;;;;;;;8.87;3.80;;;20.50;1.00;;;;;;6240085;23;20350;-77
2023/09/17 01:21:15;;;;;;;9.10;3.20;;;20.50;1.00;;;;;;6239663;23;20365;-77
2023/09/17 01:23:47;;;;;;;10.93;4.10;;;20.70;99.90;;;;;;6208174;23;20380;-77
2023/09/17 01:26:26;;;;;;;9.80;3.60;;;20.70;99.90;;;;;;6206628;23;20369;-77
2023/09/17 01:28:54;;;;;;;8.25;3.70;;;20.70;99.90;;;;;;6240058;23;20439;-77
2023/09/17 01:31:21;;;;;;;8.85;3.75;;;20.60;99.90;;;;;;6239904;23;20365;-77
2023/09/17 01:33:47;;;;;;;7.68;3.53;;;20.60;99.90;;;;;;6240281;23;20412;-77
2023/09/17 01:36:20;;;;;;;9.82;3.60;;;20.60;1.00;;;;;;6214025;23;20366;-77
2023/09/17 01:38:57;;;;;;;8.98;3.90;;;20.70;99.90;;;;;;6240798;23;20357;-77
2023/09/17 01:41:25;;;;;;;8.50;3.40;;;20.60;99.90;;;;;;6240256;23;20798;-77
2023/09/17 01:43:51;;;;;;;8.63;3.72;;;20.70;99.90;;;;;;6239796;23;20849;-77
2023/09/17 01:46:16;;;;;;;8.23;3.58;;;20.70;99.90;;;;;;6208521;23;20462;-77
2023/09/17 01:48:42;;;;;;;9.17;4.00;;;20.80;99.90;;;;;;6232890;23;20378;-77
2023/09/17 01:51:10;;;;;;;7.32;3.22;;;20.70;99.90;;;;;;6240115;23;20397;-77
2023/09/17 01:53:36;;;;;;;13.30;3.92;;;20.60;1.00;;;;;;6240152;23;20856;-77
2023/09/17 01:56:01;;;;;;;9.00;3.40;;;20.60;1.00;;;;;;6244901;23;20362;-77
2023/09/17 01:58:27;;;;;;;7.80;3.00;;;20.70;1.00;;;;;;6267283;22;20388;-77
2023/09/17 02:00:54;;;;;;;9.32;3.35;;;20.60;1.00;;;;;;6251628;23;20461;-77
2023/09/17 02:03:19;;;;;;;9.20;3.35;;;20.70;1.00;;;;;;6240248;23;20384;-78
2023/09/17 02:05:45;;;;;;;8.57;3.50;;;20.70;1.00;;;;;;6240132;23;20802;-78
2023/09/17 02:08:11;;;;;;;8.00;3.40;;;20.80;1.00;;;;;;6239645;23;20354;-78
2023/09/17 02:10:38;;;;;;;8.30;3.30;;;20.90;1.00;;;;;;6241119;23;20370;-78
2023/09/17 02:13:04;;;;;;;10.90;3.43;;;21.10;1.00;;;;;;6241092;23;20392;-78
2023/09/17 02:15:29;;;;;;;7.50;3.00;;;21.20;99.90;;;;;;6240777;23;20365;-78
2023/09/17 02:17:55;;;;;;;8.10;3.30;;;21.30;99.90;;;;;;6240802;23;20362;-77
2023/09/17 02:20:20;;;;;;;7.80;3.03;;;21.30;99.90;;;;;;6240632;23;20362;-77
2023/09/17 02:22:46;;;;;;;7.20;2.70;;;21.30;99.90;;;;;;6241761;23;20354;-77
2023/09/17 02:25:11;;;;;;;8.27;3.17;;;21.20;1.00;;;;;;6241316;23;20366;-77
2023/09/17 02:27:38;;;;;;;8.03;3.67;;;21.10;1.00;;;;;;6241264;23;20354;-77
2023/09/17 02:30:07;;;;;;;8.57;3.35;;;20.90;99.90;;;;;;6240914;23;20445;-77
2023/09/17 02:32:33;;;;;;;7.68;2.80;;;20.90;97.00;;;;;;6215572;23;20444;-77
2023/09/17 02:35:00;;;;;;;9.73;3.63;;;21.00;99.90;;;;;;6240933;23;20373;-77
2023/09/17 02:37:25;;;;;;;7.00;2.83;;;21.00;99.90;;;;;;6240990;23;20478;-77
2023/09/17 02:39:51;;;;;;;8.27;3.23;;;20.90;99.90;;;;;;6241250;23;20860;-77
2023/09/17 02:42:16;;;;;;;6.80;2.80;;;20.90;99.90;;;;;;6241959;23;20814;-77
2023/09/17 02:44:42;;;;;;;8.03;3.23;;;20.90;99.90;;;;;;6209786;23;20453;-77
2023/09/17 02:47:08;;;;;;;7.50;3.30;;;20.70;1.00;;;;;;6232835;23;20365;-77
2023/09/17 02:49:33;;;;;;;8.18;3.38;;;20.60;1.00;;;;;;6241294;23;20408;-77
2023/09/17 02:51:59;;;;;;;9.60;3.00;;;20.70;1.00;;;;;;6241436;23;20458;-77
2023/09/17 02:54:24;;;;;;;9.23;3.10;;;20.70;1.00;;;;;;6241302;23;20373;-77
2023/09/17 02:56:50;;;;;;;8.50;2.75;;;20.70;1.00;;;;;;6240824;23;20370;-77
2023/09/17 02:59:15;;;;;;;8.70;2.90;;;20.60;1.00;;;;;;6211886;23;20402;-77
2023/09/17 03:01:41;;;;;;;8.30;3.40;;;20.30;99.90;;;;;;6241480;23;20420;-77
2023/09/17 03:04:07;;;;;;;7.37;2.80;;;20.30;99.90;;;;;;6242010;23;20456;-77
2023/09/17 03:06:33;;;;;;;6.50;2.70;;;20.30;99.90;;;;;;6241209;23;20418;-77
2023/09/17 03:08:59;;;;;;;7.90;3.00;;;20.30;99.90;;;;;;6241397;23;20407;-77
2023/09/17 03:11:26;;;;;;;8.10;3.22;;;20.20;99.90;;;;;;6241076;23;20369;-77
2023/09/17 03:13:54;;;;;;;7.95;3.00;;;20.20;99.90;;;;;;6241418;23;20803;-77
2023/09/17 03:16:20;;;;;;;8.18;3.70;;;20.40;82.10;;;;;;6241275;23;20381;-77
2023/09/17 03:18:45;;;;;;;8.77;3.30;;;20.40;1.00;;;;;;6241101;23;20803;-77
2023/09/17 03:21:12;;;;;;;9.17;3.33;;;20.40;1.00;;;;;;6240447;23;20369;-77
2023/09/17 03:23:38;;;;;;;7.65;3.38;;;20.20;1.00;;;;;;6242181;23;20400;-77
2023/09/17 03:26:04;;;;;;;8.00;3.08;;;20.10;99.90;;;;;;6241858;23;20362;-77
2023/09/17 03:28:31;;;;;;;8.35;3.67;;;20.00;99.90;;;;;;6242441;23;20727;-77
2023/09/17 03:30:58;;;;;;;11.25;3.45;;;20.10;99.90;;;;;;6242769;23;20373;-77
2023/09/17 03:33:25;;;;;;;7.60;3.20;;;20.00;99.90;;;;;;6251309;23;20453;-77
2023/09/17 03:35:51;;;;;;;10.73;3.28;;;20.10;99.90;;;;;;6265628;23;20377;-77
2023/09/17 03:38:17;;;;;;;8.07;3.67;;;20.10;99.90;;;;;;6266403;23;20358;-77
2023/09/17 03:40:43;;;;;;;7.25;3.20;;;20.10;99.90;;;;;;6265403;23;20361;-77
2023/09/17 03:43:09;;;;;;;7.63;3.50;;;20.10;99.90;;;;;;6233945;23;20374;-77
2023/09/17 03:45:35;;;;;;;9.90;3.47;;;20.00;99.90;;;;;;6224778;23;20489;-77
2023/09/17 03:48:00;;;;;;;8.73;3.30;;;19.90;99.90;;;;;;6243243;23;20823;-77
2023/09/17 03:50:27;;;;;;;6.97;2.90;;;19.90;99.90;;;;;;6242732;23;20413;-77
2023/09/17 03:52:55;;;;;;;12.70;2.55;;;19.90;99.90;;;;;;6242481;23;20390;-77
2023/09/17 03:55:21;;;;;;;10.20;3.47;;;19.90;99.90;;;;;;6242266;23;20686;-77
2023/09/17 03:57:47;;;;;;;9.80;3.80;;;19.80;99.90;;;;;;6242559;23;20362;-77
2023/09/17 04:00:15;;;;;;;10.03;4.30;;;19.70;99.90;;;;;;6242269;23;20401;-77
2023/09/17 04:02:42;;;;;;;7.50;3.60;;;19.70;99.90;;;;;;6241118;23;20362;-77
2023/09/17 04:05:11;;;;;;;8.48;3.80;;;19.70;99.90;;;;;;6241303;23;20376;-77
2023/09/17 04:07:46;;;;;;;8.95;3.42;;;19.70;99.90;;;;;;6209505;23;20434;-79
2023/09/17 04:10:12;;;;;;;7.30;3.20;;;19.60;99.90;;;;;;6230411;23;20373;-77
2023/09/17 04:12:40;;;;;;;9.45;3.70;;;19.60;99.90;;;;;;6240392;23;20394;-78
2023/09/17 04:15:16;;;;;;;9.55;3.80;;;19.50;99.90;;;;;;6240672;23;20366;-77
2023/09/17 04:17:43;;;;;;;7.93;3.30;;;19.50;99.90;;;;;;6241341;23;20373;-77
2023/09/17 04:20:13;;;;;;;7.82;3.42;;;19.50;99.90;;;;;;6241010;23;20376;-77
2023/09/17 04:22:39;;;;;;;14.02;3.90;;;19.50;99.90;;;;;;6240767;23;20708;-77
2023/09/17 04:25:09;;;;;;;9.23;4.33;;;19.40;99.90;;;;;;6214666;23;20393;-78
2023/09/17 04:27:36;;;;;;;8.43;3.13;;;19.40;99.90;;;;;;6241263;23;20366;-78
2023/09/17 04:30:05;;;;;;;8.25;3.40;;;19.40;99.90;;;;;;6242207;23;20361;-78
2023/09/17 04:32:37;;;;;;;7.13;3.00;;;19.50;99.90;;;;;;6241004;23;20471;-78
2023/09/17 04:35:05;;;;;;;9.35;3.90;;;19.50;99.90;;;;;;6241678;23;20456;-78
2023/09/17 04:37:32;;;;;;;9.80;3.95;;;19.50;1.00;;;;;;6241155;23;20366;-78
2023/09/17 04:39:59;;;;;;;8.60;3.60;;;19.30;99.90;;;;;;6241169;23;20500;-78
2023/09/17 04:42:25;;;;;;;11.00;3.50;;;19.20;1.00;;;;;;6240167;23;20366;-78
2023/09/17 04:44:50;;;;;;;8.05;2.90;;;19.00;1.00;;;;;;6240775;23;20882;-78
2023/09/17 04:47:16;;;;;;;8.87;3.70;;;19.00;1.00;;;;;;6241707;23;20365;-78
2023/09/17 04:49:41;;;;;;;8.07;3.40;;;19.00;1.00;;;;;;6243828;23;20358;-78
2023/09/17 04:52:07;;;;;;;7.63;3.30;;;18.90;1.00;;;;;;6243910;23;20381;-78
2023/09/17 04:54:32;;;;;;;8.77;3.10;;;18.90;1.00;;;;;;6241029;23;20364;-77
2023/09/17 04:56:58;;;;;;;9.67;4.10;;;18.90;1.00;;;;;;6242331;23;20370;-79
2023/09/17 04:59:23;;;;;;;8.20;3.30;;;19.00;1.00;;;;;;6244010;23;20354;-80
2023/09/17 05:01:49;;;;;;;8.90;3.50;;;18.90;1.00;;;;;;6243844;23;20358;-80
2023/09/17 05:04:15;;;;;;;8.60;3.40;;;18.90;1.00;;;;;;6244138;23;20678;-80
2023/09/17 05:06:42;;;;;;;8.18;3.63;;;18.80;1.00;;;;;;6243136;23;20837;-80
2023/09/17 05:09:08;;;;;;;8.32;3.03;;;18.60;1.00;;;;;;6243134;23;21066;-80
2023/09/17 05:11:33;;;;;;;8.20;3.20;;;18.60;1.00;;;;;;6243267;23;20358;-79
2023/09/17 05:14:01;;;;;;;14.98;3.90;;;18.50;1.00;;;;;;6243523;23;20362;-79
2023/09/17 05:16:26;;;;;;;9.20;3.50;;;18.50;1.00;;;;;;6214667;23;20889;-79
2023/09/17 05:18:52;;;;;;;8.50;3.35;;;18.60;1.00;;;;;;6243395;23;20401;-79
2023/09/17 05:21:19;;;;;;;8.77;3.27;;;18.60;1.00;;;;;;6245142;23;20807;-80
2023/09/17 05:23:45;;;;;;;8.50;3.30;;;18.70;1.00;;;;;;6243880;23;20527;-80
2023/09/17 05:26:11;;;;;;;10.27;4.47;;;18.90;1.00;;;;;;6211020;23;20368;-78
2023/09/17 05:28:36;;;;;;;9.03;3.67;;;19.10;1.00;;;;;;6226603;23;20368;-77
2023/09/17 05:31:03;;;;;;;10.43;4.10;;;19.10;1.00;;;;;;6263448;22;20393;-77
2023/09/17 05:33:29;;;;;;;8.88;3.85;;;19.20;1.00;;;;;;6266680;22;20390;-77
2023/09/17 05:35:57;;;;;;;8.65;3.95;;;19.30;1.00;;;;;;6243948;23;21209;-77
2023/09/17 05:38:24;;;;;;;9.93;4.20;;;19.50;1.00;;;;;;6242351;23;20837;-77
2023/09/17 05:40:50;;;;;;;8.25;3.38;;;19.60;1.00;;;;;;6244394;23;20398;-78
2023/09/17 05:43:16;;;;;;;9.30;4.30;;;19.70;1.00;;;;;;6244794;23;20408;-77
2023/09/17 05:45:41;;;;;;;11.13;3.93;;;19.80;1.00;;;;;;6243027;23;20396;-77
2023/09/17 05:48:07;;;;;;;13.00;4.30;;;19.80;1.00;;;;;;6241861;23;20840;-77
2023/09/17 05:50:32;;;;;;;10.15;4.55;;;20.00;1.00;;;;;;6241983;23;20397;-77
2023/09/17 05:52:59;;;;;;;9.27;3.83;;;20.40;1.00;;;;;;6241363;23;20385;-77
2023/09/17 05:55:25;;;;;;;9.73;4.13;;;21.20;99.90;;;;;;6241443;23;20468;-77
2023/09/17 05:57:50;;;;;;;8.60;3.80;;;22.20;1.00;;;;;;6243612;23;20513;-79
2023/09/17 06:00:17;;;;;;;8.70;3.70;;;23.10;99.90;;;;;;6244539;23;20412;-77
2023/09/17 06:02:43;;;;;;;10.80;4.38;;;23.80;99.90;;;;;;6215288;23;20364;-78
2023/09/17 06:05:09;;;;;;;9.73;4.30;;;;;;;;;;6240535;23;21000;-78
2023/09/17 06:07:34;;;;;;;9.05;4.05;;;25.20;99.90;;;;;;6240347;23;20373;-79
2023/09/17 06:10:00;;;;;;;11.75;3.92;;;25.60;12.80;;;;;;6241659;23;20438;-79
2023/09/17 06:12:26;;;;;;;8.70;3.80;;;26.20;1.00;;;;;;6241807;23;20385;-79
2023/09/17 06:14:51;;;;;;;9.75;4.18;;;27.00;1.00;;;;;;6242849;23;20452;-79
2023/09/17 06:17:17;;;;;;;10.00;4.13;;;26.60;1.00;;;;;;6242744;23;20430;-79
2023/09/17 06:19:44;;;;;;;10.17;4.20;;;26.00;1.00;;;;;;6214666;23;20379;-79
2023/09/17 06:22:11;;;;;;;8.30;4.17;;;26.30;1.00;;;;;;6243708;23;20456;-79
2023/09/17 06:24:36;;;;;;;9.95;4.50;;;27.70;1.00;;;;;;6245278;23;20437;-79
2023/09/17 06:27:03;;;;;;;8.30;4.00;;;29.10;1.00;;;;;;6223605;23;20374;-79
2023/09/17 06:29:29;;;;;;;8.52;3.90;;;29.90;99.90;;;;;;6245342;23;20365;-79
2023/09/17 06:31:55;;;;;;;10.43;4.03;;;30.20;99.90;;;;;;6244307;23;20440;-79
2023/09/17 06:34:20;;;;;;;8.85;3.70;;;30.50;99.90;;;;;;6243194;23;20462;-79
2023/09/17 06:36:46;;;;;;;7.60;3.27;;;29.90;99.90;;;;;;6244121;23;20818;-79
2023/09/17 06:39:12;;;;;;;9.80;3.47;;;29.90;99.90;;;;;;6243361;23;20350;-79
2023/09/17 06:41:37;;;;;;;7.53;3.40;;;30.00;99.90;;;;;;6244051;23;21242;-79
2023/09/17 06:44:03;;;;;;;9.43;3.93;;;30.50;99.90;;;;;;6244256;23;20393;-79
2023/09/17 06:46:29;;;;;;;8.82;3.60;;;30.70;99.90;;;;;;6244662;23;20444;-79
2023/09/17 06:48:55;;;;;;;8.88;3.60;;;30.90;99.90;;;;;;6244404;23;20373;-79
2023/09/17 06:51:20;;;;;;;9.43;3.80;;;31.40;99.90;;;;;;6244663;23;20385;-80
2023/09/17 06:53:46;;;;;;;9.00;3.90;;;32.50;99.90;;;;;;6244178;23;20385;-79
2023/09/17 06:56:13;;;;;;;8.40;3.20;;;32.40;99.90;;;;;;6217119;23;20899;-77
2023/09/17 06:58:39;;;;;;;9.63;3.80;;;32.80;99.90;;;;;;6240589;23;20408;-78
2023/09/17 07:01:05;;;;;;;8.18;3.80;;;32.90;99.90;;;;;;6241570;23;20362;-78
2023/09/17 07:03:31;;;;;;;8.70;3.60;;;32.00;99.90;;;;;;6241072;23;20354;-78
2023/09/17 07:05:56;;;;;;;7.90;3.50;;;31.20;99.90;;;;;;6241685;23;20377;-78
2023/09/17 07:08:22;;;;;;;8.47;4.10;;;31.40;99.90;;;;;;6241297;23;20361;-78
2023/09/17 07:10:47;;;;;;;8.47;3.07;;;32.00;99.90;;;;;;6241575;23;20358;-78
2023/09/17 07:13:13;;;;;;;8.20;3.07;;;31.90;99.90;;;;;;6241893;23;20382;-78
2023/09/17 07:15:39;;;;;;;9.10;4.00;;;31.30;99.90;;;;;;6242003;23;20372;-78
2023/09/17 07:18:07;;;;;;;8.35;3.42;;;31.40;99.90;;;;;;6241657;23;20365;-78
2023/09/17 07:20:33;;;;;;;8.93;3.47;;;31.80;99.90;;;;;;6215027;23;20370;-78
2023/09/17 07:22:59;;;;;;;8.60;3.27;;;31.60;99.90;;;;;;6246791;23;20499;-78
2023/09/17 07:25:24;;;;;;;10.13;3.90;;;31.20;99.90;;;;;;6247227;23;20759;-78
2023/09/17 07:27:50;;;;;;;7.32;2.75;;;31.10;99.90;;;;;;6221018;23;20841;-78
2023/09/17 07:30:17;;;;;;;7.97;3.47;;;31.20;99.90;;;;;;6245953;23;20357;-78
2023/09/17 07:32:42;;;;;;;8.77;3.40;;;31.50;99.90;;;;;;6248468;23;20382;-78
2023/09/17 07:35:08;;;;;;;8.40;3.60;;;32.00;99.90;;;;;;6248452;23;20457;-78
2023/09/17 07:37:33;;;;;;;7.67;2.90;;;32.30;99.90;;;;;;6249120;23;20362;-78
2023/09/17 07:40:04;;;;;;;7.53;3.20;;;32.00;99.90;;;;;;6249390;23;20374;-79
2023/09/17 07:42:29;;;;;;;7.70;3.00;;;31.70;99.90;;;;;;6248230;23;20369;-78
2023/09/17 07:44:55;;;;;;;8.03;3.00;;;32.10;99.90;;;;;;6246688;23;20354;-78
2023/09/17 07:47:20;;;;;;;7.28;2.90;;;31.60;99.90;;;;;;6242017;23;20675;-78
2023/09/17 07:49:46;;;;;;;8.70;3.23;;;31.70;99.90;;;;;;6242238;23;20408;-78
2023/09/17 07:52:15;;;;;;;7.73;3.03;;;32.50;99.90;;;;;;6241934;23;20378;-78
2023/09/17 07:54:42;;;;;;;7.33;3.00;;;33.10;99.90;;;;;;6244936;23;20361;-78
2023/09/17 07:57:10;;;;;;;7.90;2.70;;;33.50;99.90;;;;;;6246612;23;20437;-78
2023/09/17 07:59:36;;;;;;;8.52;2.80;;;33.40;99.90;;;;;;6245372;23;20388;-78
2023/09/17 08:02:03;;;;;;;8.20;3.30;;;33.20;99.90;;;;;;6245576;23;20778;-78
2023/09/17 08:04:28;;;;;;;8.97;2.80;;;32.40;99.90;;;;;;6245939;23;20424;-78
2023/09/17 08:06:56;;;;;;;8.43;3.67;;;31.80;99.90;;;;;;6253154;23;20340;-78
2023/09/17 08:09:22;;;;;;;8.38;3.30;;;31.50;99.90;;;;;;6267596;22;20366;-78
2023/09/17 08:11:49;;;;;;;8.43;3.13;;;31.80;99.90;;;;;;6221141;23;20388;-78
2023/09/17 08:14:15;;;;;;;8.55;3.10;;;32.20;99.90;;;;;;6242153;23;20412;-78
2023/09/17 08:16:40;;;;;;;8.20;3.20;;;32.80;99.90;;;;;;6241364;23;20394;-78
2023/09/17 08:19:06;;;;;;;8.07;3.00;;;33.80;99.90;;;;;;6241492;23;20828;-78
2023/09/17 08:21:32;;;;;;;8.57;2.97;;;34.40;99.90;;;;;;6240624;23;20370;-78
2023/09/17 08:23:58;;;;;;;8.10;3.03;;;34.80;99.90;;;;;;6240858;23;20366;-78
2023/09/17 08:26:29;;;;;;;8.43;3.03;;;;;;;;;;6242674;23;20731;-79
2023/09/17 08:29:00;;;;;;;7.75;3.60;;;36.50;99.90;;;;;;6241683;23;20694;-78
2023/09/17 08:31:26;;;;;;;7.60;3.00;;;36.80;99.90;;;;;;6241222;23;20871;-78
2023/09/17 08:33:52;;;;;;;7.30;2.90;;;37.40;99.90;;;;;;6241066;23;20386;-78
2023/09/17 08:36:21;;;;;;;7.50;3.00;;;37.50;99.90;;;;;;6241161;23;20822;-78
2023/09/17 08:38:50;;;;;;;8.18;3.20;;;37.70;99.90;;;;;;6240241;23;20370;-78
2023/09/17 08:41:18;;;;;;;8.13;3.30;;;37.60;99.90;;;;;;6241446;23;20372;-78
2023/09/17 08:43:45;;;;;;;8.52;3.30;;;37.50;99.90;;;;;;6242119;23;20354;-78
2023/09/17 08:46:12;;;;;;;8.10;2.97;;;38.00;99.90;;;;;;6240129;23;20382;-78
2023/09/17 08:48:37;;;;;;;7.70;3.10;;;38.50;99.90;;;;;;6239225;23;20807;-78
2023/09/17 08:51:04;;;;;;;7.57;3.30;;;39.10;99.90;;;;;;6240366;23;20373;-78
2023/09/17 08:53:38;;;;;;;7.40;3.08;;;39.20;99.90;;;;;;6240227;23;20822;-78
2023/09/17 08:56:06;;;;;;;8.25;3.10;;;38.60;99.90;;;;;;6240515;23;20818;-78
2023/09/17 08:58:38;;;;;;;7.10;2.83;;;39.00;99.90;;;;;;6239982;23;20365;-78
2023/09/17 09:01:07;;;;;;;7.80;2.90;;;39.40;99.90;;;;;;6240506;23;20358;-78
2023/09/17 09:03:35;;;;;;;8.40;2.97;;;39.70;99.90;;;;;;6239227;23;20388;-78
2023/09/17 09:06:03;;;;;;;8.75;2.92;;;40.10;99.90;;;;;;6239149;23;20450;-78
2023/09/17 09:08:30;;;;;;;6.78;2.72;;;39.90;99.90;;;;;;6239872;23;20366;-78
2023/09/17 09:10:56;;;;;;;6.85;2.40;;;39.70;99.90;;;;;;6240551;23;20385;-78
2023/09/17 09:13:21;;;;;;;9.60;3.77;;;39.00;99.90;;;;;;6240033;23;21038;-78
2023/09/17 09:15:47;;;;;;;11.40;2.90;;;38.80;99.90;;;;;;6241539;23;20449;-78
2023/09/17 09:18:13;;;;;;;8.27;3.28;;;39.00;99.90;;;;;;6240866;23;20369;-77
2023/09/17 09:20:40;;;;;;;7.70;2.90;;;39.50;99.90;;;;;;6240585;23;20376;-78
2023/09/17 09:23:06;;;;;;;12.70;5.33;;;39.30;99.90;;;;;;6241105;23;20369;-77
2023/09/17 09:25:32;;;;;;;8.37;1.30;;;38.30;99.90;;;;;;6241040;23;20397;-77
2023/09/17 09:28:04;;;;;;;6.05;1.40;;;37.70;99.90;;;;;;6240436;23;20365;-77
2023/09/17 09:30:30;;;;;;;6.55;1.90;;;37.10;99.90;;;;;;6240171;23;20353;-77
2023/09/17 09:32:56;;;;;;;8.38;2.30;;;37.50;99.90;;;;;;6239456;23;20382;-77
2023/09/17 09:35:23;;;;;;;6.18;1.60;;;37.80;99.90;;;;;;6239665;23;20660;-77
2023/09/17 09:37:51;;;;;;;7.25;1.60;;;37.80;99.90;;;;;;6240381;23;20354;-77
2023/09/17 09:40:17;;;;;;;8.07;2.40;;;37.70;99.90;;;;;;6241204;23;20366;-77
2023/09/17 09:42:43;;;;;;;7.40;2.00;;;37.70;99.90;;;;;;6238440;23;20374;-77
2023/09/17 09:45:15;;;;;;;7.20;2.13;;;36.90;99.90;;;;;;6240811;23;20372;-77
2023/09/17 09:47:47;;;;;;;6.47;1.33;;;37.60;99.90;;;;;;6239634;23;20407;-77
2023/09/17 09:50:23;;;;;;;6.47;1.80;;;36.30;99.90;;;;;;6240480;23;20806;-77
2023/09/17 09:52:49;;;;;;;8.98;2.50;;;36.30;99.90;;;;;;6239755;23;20382;-77
2023/09/17 09:55:14;;;;;;;8.70;1.88;;;36.40;99.90;;;;;;6240359;23;20354;-78
2023/09/17 09:57:42;;;;;;;7.57;2.30;;;36.50;99.90;;;;;;6239619;23;20394;-78
2023/09/17 10:00:14;;;;;;;6.35;1.30;;;36.60;99.90;;;;;;6239598;23;20362;-78
2023/09/17 10:02:40;;;;;;;6.17;1.50;;;37.00;99.90;;;;;;6239735;23;20826;-78
2023/09/17 10:05:10;;;;;;;6.70;1.53;;;37.40;99.90;;;;;;6240336;23;20368;-77
2023/09/17 10:07:35;;;;;;;8.73;2.03;;;37.30;99.90;;;;;;6239559;23;20695;-77
2023/09/17 10:10:01;;;;;;;7.10;1.90;;;37.20;99.90;;;;;;6240033;23;20370;-77
2023/09/17 10:12:27;;;;;;;6.50;2.10;;;38.10;99.90;;;;;;6239688;23;20413;-75
2023/09/17 10:14:53;;;;;;;7.70;1.90;;;39.10;99.90;;;;;;6239299;23;20362;-76
2023/09/17 10:17:19;;;;;;;6.88;2.40;;;38.80;99.90;;;;;;6239230;23;20377;-75
2023/09/17 10:19:47;;;;;;;8.20;2.80;;;38.90;99.90;;;;;;6240379;23;20424;-76
2023/09/17 10:22:15;;;;;;;7.22;1.60;;;38.50;99.90;;;;;;6239966;23;20358;-77
2023/09/17 10:24:42;;;;;;;8.85;2.30;;;37.10;99.90;;;;;;6239567;23;20389;-78
2023/09/17 10:27:08;;;;;;;8.25;2.00;;;37.00;99.90;;;;;;6239847;23;20369;-78
2023/09/17 10:29:38;;;;;;;10.52;2.17;;;37.40;99.90;;;;;;6239742;23;20394;-76
2023/09/17 10:32:04;;;;;;;6.22;2.20;;;37.40;99.90;;;;;;6240714;23;20385;-76
2023/09/17 10:34:35;;;;;;;6.10;1.70;;;38.00;99.90;;;;;;6241441;23;20354;-77
2023/09/17 10:37:03;;;;;;;5.97;1.95;;;37.30;99.90;;;;;;6241528;23;20360;-77
2023/09/17 10:39:29;;;;;;;6.72;1.50;;;37.10;99.90;;;;;;6241531;23;20393;-78
2023/09/17 10:41:57;;;;;;;7.00;1.65;;;37.20;99.90;;;;;;6240784;23;20358;-76
2023/09/17 10:44:25;;;;;;;6.55;1.65;;;37.70;99.90;;;;;;6242763;23;20429;-77
2023/09/17 10:46:52;;;;;;;8.40;1.60;;;37.40;99.90;;;;;;6241443;23;20690;-77
2023/09/17 10:49:20;;;;;;;9.50;1.73;;;37.10;99.90;;;;;;6242053;23;20806;-77
2023/09/17 10:51:47;;;;;;;8.20;1.80;;;36.50;99.90;;;;;;6242476;23;20836;-78
2023/09/17 10:54:13;;;;;;;7.87;1.70;;;35.90;99.90;;;;;;6241940;23;20755;-78
2023/09/17 10:56:42;;;;;;;7.60;1.70;;;35.60;99.90;;;;;;6240967;23;20362;-78
2023/09/17 10:59:12;;;;;;;8.25;1.98;;;35.90;99.90;;;;;;6241154;23;20995;-78
2023/09/17 11:01:39;;;;;;;7.68;1.67;;;36.30;99.90;;;;;;6241516;23;20358;-78
2023/09/17 11:04:10;;;;;;;7.97;1.60;;;36.50;99.90;;;;;;6241759;23;20444;-78
2023/09/17 11:06:37;;;;;;;6.67;1.67;;;36.90;99.90;;;;;;6241755;23;20394;-78
2023/09/17 11:09:06;;;;;;;7.00;1.50;;;37.10;99.90;;;;;;6241357;23;20376;-78
2023/09/17 11:11:34;;;;;;;5.70;1.23;;;36.50;99.90;;;;;;6241660;23;20358;-78
2023/09/17 11:14:04;;;;;;;6.45;1.70;;;37.00;99.90;;;;;;6209324;23;20471;-78
2023/09/17 11:16:32;;;;;;;8.43;3.38;;;36.60;99.90;;;;;;6241881;23;20396;-78
2023/09/17 11:19:17;;;;;;;9.57;1.65;;;36.60;99.90;;;;;;6239557;23;20369;-78
2023/09/17 11:22:03;;;;;;;13.27;1.93;;;36.10;99.90;;;;;;6241657;23;20389;-78
2023/09/17 11:24:30;;;;;;;6.95;1.80;;;35.60;99.90;;;;;;6206763;23;20366;-78
2023/09/17 11:26:57;;;;;;;6.90;1.23;;;35.00;99.90;;;;;;6250608;23;20398;-76
2023/09/17 11:29:37;;;;;;;6.32;1.33;;;34.60;99.90;;;;;;6243864;23;20370;-77
2023/09/17 11:32:04;;;;;;;8.23;1.67;;;34.60;99.90;;;;;;6251120;23;20374;-77
2023/09/17 11:34:30;;;;;;;10.05;1.50;;;34.60;99.90;;;;;;6251816;23;20358;-76
2023/09/17 11:36:57;;;;;;;7.22;1.45;;;34.10;99.90;;;;;;6255840;23;20373;-77
2023/09/17 11:39:24;;;;;;;7.80;1.20;;;34.10;99.90;;;;;;6256564;23;20416;-76
2023/09/17 11:41:53;;;;;;;8.60;1.80;;;33.70;99.90;;;;;;6211579;23;20402;-78
2023/09/17 11:44:22;;;;;;;9.70;1.40;;;33.60;99.90;;;;;;6224304;23;20679;-76
2023/09/17 11:46:48;;;;;;;6.75;1.55;;;33.40;99.90;;;;;;6241053;23;20358;-77
2023/09/17 11:49:15;;;;;;;5.50;1.42;;;33.30;99.90;;;;;;6242114;23;20675;-77
2023/09/17 11:51:45;;;;;;;6.90;1.33;;;33.20;99.90;;;;;;6241380;23;20371;-77
2023/09/17 11:54:15;;;;;;;7.90;1.55;;;32.60;99.90;;;;;;6242524;23;20813;-77
2023/09/17 11:56:53;;;;;;;5.82;1.60;;;32.60;99.90;;;;;;6243937;23;20393;-77
2023/09/17 11:59:20;;;;;;;5.88;1.35;;;32.60;99.90;;;;;;6245130;23;20411;-78
2023/09/17 12:01:54;;;;;;;7.80;2.00;;;32.50;99.90;;;;;;6243697;23;20366;-77
2023/09/17 12:04:31;;;;;;;6.80;1.50;;;32.70;99.90;;;;;;6240908;23;20845;-77
2023/09/17 12:06:58;;;;;;;5.20;1.45;;;32.60;99.90;;;;;;6245077;23;20366;-78
2023/09/17 12:12:04;;;;;;;6.45;1.60;;;32.70;99.90;;;;;;6242185;23;20396;-77
2023/09/17 12:14:32;;;;;;;6.40;1.60;;;32.30;99.90;;;;;;6240949;23;20924;-77
2023/09/17 12:16:58;;;;;;;7.13;1.48;;;32.60;99.90;;;;;;6240548;23;20682;-77
2023/09/17 12:19:24;;;;;;;9.32;1.80;;;33.00;99.90;;;;;;6240138;23;20366;-77
2023/09/17 12:21:53;;;;;;;6.70;1.80;;;33.10;99.90;;;;;;6239616;23;20381;-77
2023/09/17 12:24:25;;;;;;;6.85;1.63;;;33.30;99.90;;;;;;6240519;23;20350;-77
2023/09/17 12:27:09;;;;;;;6.40;1.40;;;33.70;99.90;;;;;;6240782;23;20802;-77
2023/09/17 12:29:35;;;;;;;6.75;1.25;;;33.30;99.90;;;;;;6240503;23;20730;-77
2023/09/17 12:32:01;;;;;;;5.40;1.10;;;32.90;99.90;;;;;;6239997;23;20385;-77
2023/09/17 12:34:27;;;;;;;9.30;1.45;;;32.10;99.90;;;;;;6240748;23;20394;-77
2023/09/17 12:36:53;;;;;;;5.00;1.10;;;32.10;99.90;;;;;;6239690;23;20408;-77
2023/09/17 12:39:18;;;;;;;6.10;1.50;;;32.40;99.90;;;;;;6239616;23;20370;-77
2023/09/17 12:41:44;;;;;;;6.67;1.60;;;32.60;99.90;;;;;;6240427;23;20445;-77
2023/09/17 12:44:10;;;;;;;6.80;1.55;;;32.80;99.90;;;;;;6239499;23;20753;-77
2023/09/17 12:46:37;;;;;;;6.90;1.70;;;33.10;99.90;;;;;;6237476;23;20393;-77
2023/09/17 12:49:03;;;;;;;7.13;1.45;;;33.40;99.90;;;;;;6240053;23;20358;-77